createdAt,value
2018-12-30T11:09:34.583Z,78.63
2018-12-30T11:17:12.006Z,76.46
2018-12-30T11:22:14.755Z,77.27
2018-12-30T11:27:17.404Z,77.09
2018-12-30T11:32:20.491Z,77.16
2018-12-30T11:37:23.522Z,73.69
2018-12-30T11:42:26.206Z,75.50
2018-12-30T11:47:28.805Z,72.83
2018-12-30T11:52:31.699Z,72.67
2018-12-30T11:57:34.671Z,72.57
2018-12-30T12:02:37.533Z,70.73
2018-12-30T12:07:40.221Z,70.50
2018-12-30T12:12:48.826Z,70.22
2018-12-30T12:17:47.005Z,71.03
2018-12-30T12:22:49.967Z,71.42
2018-12-30T12:27:52.998Z,72.21
2018-12-30T12:32:55.956Z,73.48
2018-12-30T12:37:58.847Z,73.86
2018-12-30T12:43:01.135Z,74.38
2018-12-30T12:48:04.147Z,74.83
2018-12-30T12:53:06.919Z,74.47
2018-12-30T12:58:09.831Z,72.47
2018-12-30T13:03:12.334Z,72.27
2018-12-30T13:08:14.412Z,72.23
2018-12-30T13:13:17.407Z,72.06
2018-12-30T13:18:20.189Z,71.43
2018-12-30T13:23:22.927Z,69.86
2018-12-30T13:28:25.416Z,70.03
2018-12-30T13:33:28.483Z,70.79
2018-12-30T13:38:31.432Z,70.76
2018-12-30T13:43:33.813Z,70.14
2018-12-30T13:48:36.624Z,71.54
2018-12-30T13:53:39.619Z,72.55
2018-12-30T13:58:42.330Z,74.42
2018-12-30T14:03:45.134Z,75.10
2018-12-30T14:08:47.857Z,76.10
2018-12-30T14:13:50.622Z,76.79
2018-12-30T14:18:52.719Z,76.82
2018-12-30T14:23:55.863Z,77.36
2018-12-30T14:28:58.716Z,77.78
2018-12-30T14:34:01.828Z,78.58
2018-12-30T14:39:06.510Z,78.75
2018-12-30T14:44:08.957Z,78.92
2018-12-30T14:49:11.657Z,79.04
2018-12-30T14:54:14.828Z,79.87
2018-12-30T14:59:17.927Z,80.66
2018-12-30T15:04:22.376Z,80.39
2018-12-30T15:09:25.328Z,81.32
2018-12-30T15:14:27.700Z,81.38
2018-12-30T15:19:30.823Z,82.09
2018-12-30T15:24:33.987Z,82.07
2018-12-30T15:29:36.935Z,82.20
2018-12-30T15:34:39.713Z,81.74
2018-12-30T15:39:42.746Z,82.18
2018-12-30T15:44:44.901Z,82.16
2018-12-30T15:49:47.916Z,82.46
2018-12-30T15:55:22.808Z,82.75
2018-12-30T16:00:52.969Z,83.00
2018-12-30T16:06:07.069Z,83.39
2018-12-30T16:11:10.107Z,83.21
2018-12-30T16:16:13.075Z,82.94
2018-12-30T16:21:15.952Z,82.87
2018-12-30T16:26:19.070Z,83.09
2018-12-30T16:31:28.084Z,83.54
2018-12-30T16:36:26.326Z,83.83
2018-12-30T16:41:29.034Z,84.30
2018-12-30T16:46:32.031Z,84.87
2018-12-30T16:51:34.733Z,84.80
2018-12-30T16:56:37.680Z,85.31
2018-12-30T17:01:40.407Z,85.24
2018-12-30T17:06:43.177Z,85.42
2018-12-30T17:11:45.833Z,85.56
2018-12-30T17:16:48.849Z,85.70
2018-12-30T17:21:51.150Z,85.64
2018-12-30T17:26:54.448Z,85.75
2018-12-30T17:31:57.518Z,86.09
2018-12-30T17:37:00.231Z,86.37
2018-12-30T17:42:02.907Z,86.19
2018-12-30T17:47:05.873Z,86.25
2018-12-30T17:52:08.860Z,86.65
2018-12-30T17:57:11.747Z,87.65
2018-12-30T18:02:16.359Z,87.08
2018-12-30T18:07:20.963Z,87.10
2018-12-30T18:12:24.935Z,87.84
2018-12-30T18:17:29.000Z,87.24
2018-12-30T18:22:34.056Z,87.90
2018-12-30T18:27:38.370Z,88.46
2018-12-30T18:32:41.199Z,88.68
2018-12-30T18:37:43.390Z,89.31
2018-12-30T18:42:45.791Z,89.72
2018-12-30T18:47:48.430Z,89.90
2018-12-30T18:52:51.527Z,90.11
2018-12-30T18:57:54.693Z,90.56
2018-12-30T19:02:57.415Z,91.04
2018-12-30T19:07:59.808Z,91.50
2018-12-30T19:13:02.489Z,91.15
2018-12-30T19:18:07.211Z,91.15
2018-12-30T19:23:09.720Z,91.16
2018-12-30T19:28:13.853Z,91.67
2018-12-30T19:33:16.763Z,92.67
2018-12-30T19:38:19.179Z,92.62
2018-12-30T19:43:22.271Z,92.98
2018-12-30T19:48:24.759Z,93.36
2018-12-30T19:53:27.956Z,92.66
2018-12-30T19:58:31.179Z,92.31
2018-12-30T20:03:34.586Z,92.08
2018-12-30T20:08:37.292Z,91.92
2018-12-30T20:13:40.184Z,92.20
2018-12-30T20:18:42.885Z,92.61
2018-12-30T20:23:46.421Z,92.76
2018-12-30T20:28:50.194Z,92.56
2018-12-30T20:33:53.467Z,92.41
2018-12-30T20:38:56.502Z,93.25
2018-12-30T20:43:59.947Z,93.70
2018-12-30T20:49:03.246Z,93.26
2018-12-30T20:54:06.480Z,93.53
2018-12-30T20:59:09.864Z,94.00
2018-12-30T21:04:13.043Z,94.32
2018-12-30T21:09:17.228Z,94.53
2018-12-30T21:14:20.734Z,95.26
2018-12-30T21:19:23.463Z,95.33
2018-12-30T21:24:27.927Z,94.85
2018-12-30T21:29:30.686Z,95.54
2018-12-30T21:34:33.183Z,94.96
2018-12-30T21:39:35.992Z,94.56
2018-12-30T21:44:38.530Z,94.71
2018-12-30T21:49:41.893Z,95.82
2018-12-30T21:54:44.540Z,97.41
2018-12-30T21:59:47.190Z,96.81
2018-12-30T22:04:50.170Z,95.82
2018-12-30T22:09:52.866Z,95.58
2018-12-30T22:14:55.699Z,95.48
2018-12-30T22:19:57.467Z,95.71
2018-12-30T22:25:00.577Z,95.54
2018-12-30T22:30:04.470Z,97.48
2018-12-30T22:35:07.624Z,98.10
2018-12-30T22:40:10.579Z,98.17
2018-12-30T22:45:13.621Z,97.48
2018-12-30T22:50:16.094Z,97.03
2018-12-30T22:55:19.127Z,96.71
2018-12-30T23:00:38.919Z,96.91
2018-12-30T23:05:41.872Z,97.05
2018-12-30T23:10:46.261Z,96.92
2018-12-30T23:15:49.141Z,96.88
2018-12-30T23:20:52.147Z,97.00
2018-12-30T23:25:55.167Z,97.19
2018-12-30T23:30:57.563Z,97.27
2018-12-30T23:36:00.045Z,97.34
2018-12-30T23:41:02.435Z,97.25
2018-12-30T23:46:05.225Z,97.49
2018-12-30T23:51:08.046Z,97.75
2018-12-30T23:56:11.147Z,97.71
